Mundford, United Kingdom
Current Conditions -  °F | °C
As of 8:58 AM on Saturday 22 Nov 2014 (Local Time) from EGUL Reporting Station
Light Rain Light Rain  
Wind Chill: 53°   Ceiling: 7500
Heat Index: 53°   Visibility: 5mi
Dew Point: 53°   Wind: 9mph
Humidity: 100%   Direction: 170°S
Pressure: 29.88"   Gusts: NA
Location:  52.51°N, 0.66°E
Report Text: EGUL 220858Z AUTO 17008KT 8000 -RA BR SCT006 BKN075 12/12 A2988 RMK AO2 RAB0842 CIG 006 RWY24 SLP122 P0002 60004 T01160116 52014
Loading
Personal Weather Stations






























Interactive Weather Map New forecast layout! Learn more

10-Day Weather Forecast

Advertisements
Track Severe Weather on mobile